Bilibino, Russia
Current Conditions -  °F | °C
As of 5:16 PM on Sunday 26 Oct 2014 (Local Time) from PAGM Reporting Station
Broken Clouds Broken Clouds  
Wind Chill: 20°   Ceiling: 4600
Heat Index: 30°   Visibility: 10mi
Dew Point: 25°   Wind: 13mph
Humidity: 80%   Direction: 280°W
Pressure: 29.56"   Gusts: NA
Location:  68.06°N, 166.44°E
Report Text: PAGM 260516Z AUTO 28011KT 10SM SCT030 SCT036 BKN046 M01/M04 A2956 RMK AO1
Loading
Personal Weather Stations






























Interactive Weather Map
Tropical Storm Tracking
New forecast layout! Learn more

10-Day Weather Forecast

Advertisements
Track Severe Weather on mobile